createdAt,value
2023-03-29T00:00:35.904Z,0.00
2023-03-29T00:01:36.578Z,0.00
2023-03-29T00:02:36.861Z,0.00
2023-03-29T00:03:35.840Z,0.00
2023-03-29T00:04:35.831Z,0.00
2023-03-29T00:05:35.826Z,0.00
2023-03-29T00:06:35.735Z,0.00
2023-03-29T00:07:35.721Z,0.00
2023-03-29T00:08:35.754Z,0.00
2023-03-29T00:09:35.792Z,0.00
2023-03-29T00:10:35.768Z,0.00
2023-03-29T00:11:35.714Z,0.00
2023-03-29T00:12:35.704Z,0.00
2023-03-29T00:13:35.681Z,0.00
2023-03-29T00:14:35.660Z,0.00
2023-03-29T00:15:35.701Z,0.00
2023-03-29T00:16:35.684Z,0.00
2023-03-29T00:17:35.669Z,0.00
2023-03-29T00:18:35.630Z,0.00
2023-03-29T00:19:35.691Z,0.00
2023-03-29T00:20:35.609Z,0.00
2023-03-29T00:21:35.632Z,0.00
2023-03-29T00:22:35.599Z,0.00
2023-03-29T00:23:35.585Z,0.00
2023-03-29T00:24:35.557Z,0.00
2023-03-29T00:25:35.550Z,0.00
2023-03-29T00:26:35.560Z,0.00
2023-03-29T00:27:35.551Z,0.00
2023-03-29T00:28:35.569Z,0.00
2023-03-29T00:29:35.517Z,0.00
2023-03-29T00:30:35.491Z,0.00
2023-03-29T00:31:35.536Z,0.00
2023-03-29T00:32:35.514Z,0.00
2023-03-29T00:33:35.467Z,0.00
2023-03-29T00:34:35.510Z,0.00
2023-03-29T00:35:35.491Z,0.00
2023-03-29T00:36:35.455Z,0.00
2023-03-29T00:37:35.432Z,0.00
2023-03-29T00:38:35.428Z,0.00
2023-03-29T00:39:35.442Z,0.00
2023-03-29T00:40:35.384Z,0.00
2023-03-29T00:41:35.560Z,0.00
2023-03-29T00:42:35.353Z,0.00
2023-03-29T00:43:35.480Z,0.00
2023-03-29T00:44:35.360Z,0.00
2023-03-29T00:45:35.342Z,0.00
2023-03-29T00:46:35.438Z,0.00
2023-03-29T00:47:35.386Z,0.00
2023-03-29T00:48:35.316Z,0.00
2023-03-29T00:49:35.327Z,0.00
2023-03-29T00:50:35.298Z,0.00
2023-03-29T00:51:35.283Z,0.00
2023-03-29T00:52:35.881Z,0.00
2023-03-29T00:53:35.248Z,0.00
2023-03-29T00:54:35.379Z,0.00
2023-03-29T00:55:35.355Z,0.00
2023-03-29T00:56:35.760Z,0.00
2023-03-29T00:57:35.246Z,0.00
2023-03-29T00:58:35.260Z,0.00
2023-03-29T00:59:35.210Z,0.00
2023-03-29T01:00:35.225Z,0.00
2023-03-29T01:01:35.259Z,0.00
2023-03-29T01:02:35.268Z,0.00
2023-03-29T01:03:35.874Z,0.00
2023-03-29T01:04:35.146Z,0.00
2023-03-29T01:05:35.278Z,0.00
2023-03-29T01:06:35.227Z,0.00
2023-03-29T01:07:35.124Z,0.00
2023-03-29T01:08:35.173Z,0.00
2023-03-29T01:09:35.119Z,0.00
2023-03-29T01:10:35.132Z,0.00
2023-03-29T01:11:35.081Z,0.00
2023-03-29T01:12:35.059Z,0.00
2023-03-29T01:13:35.098Z,0.00
2023-03-29T01:14:35.038Z,0.00
2023-03-29T01:15:35.190Z,0.00
2023-03-29T01:16:35.115Z,0.00
2023-03-29T01:17:35.118Z,0.00
2023-03-29T01:18:35.029Z,0.00
2023-03-29T01:19:35.000Z,0.00
2023-03-29T01:20:35.110Z,0.00
2023-03-29T01:21:34.991Z,0.00
2023-03-29T01:22:34.968Z,0.00
2023-03-29T01:23:34.989Z,0.00
2023-03-29T01:24:34.947Z,0.00
2023-03-29T01:25:34.945Z,0.00
2023-03-29T01:26:34.935Z,0.00
2023-03-29T01:27:34.914Z,0.00
2023-03-29T01:28:34.901Z,0.00
2023-03-29T01:29:34.887Z,0.00
2023-03-29T01:30:34.936Z,0.00
2023-03-29T01:31:34.884Z,0.00
2023-03-29T01:32:34.970Z,0.00
2023-03-29T01:33:34.867Z,0.00
2023-03-29T01:34:35.820Z,0.00
2023-03-29T01:35:34.841Z,0.00
2023-03-29T01:36:34.818Z,0.00
2023-03-29T01:37:34.866Z,0.00
2023-03-29T01:38:34.781Z,0.00
2023-03-29T01:39:34.828Z,0.00
2023-03-29T01:40:34.807Z,0.00
2023-03-29T01:41:34.775Z,0.00
2023-03-29T01:42:35.285Z,0.00
2023-03-29T01:43:34.741Z,0.00
2023-03-29T01:44:34.767Z,0.00
2023-03-29T01:45:34.749Z,0.00
2023-03-29T01:46:34.809Z,0.00
2023-03-29T01:47:34.756Z,0.00
2023-03-29T01:48:34.692Z,0.00
2023-03-29T01:49:34.708Z,0.00
2023-03-29T01:50:34.683Z,0.00
2023-03-29T01:51:34.663Z,0.00
2023-03-29T01:52:34.643Z,0.00
2023-03-29T01:53:34.649Z,0.00
2023-03-29T01:54:34.631Z,0.00
2023-03-29T01:55:34.617Z,0.00
2023-03-29T01:56:34.590Z,0.00
2023-03-29T01:57:35.595Z,0.00
2023-03-29T01:58:34.603Z,0.00
2023-03-29T01:59:35.576Z,0.00
2023-03-29T02:00:34.582Z,0.00
2023-03-29T02:01:35.377Z,0.00
2023-03-29T02:02:34.611Z,0.00
2023-03-29T02:03:34.726Z,0.00
2023-03-29T02:04:34.544Z,0.00
2023-03-29T02:05:34.483Z,0.00
2023-03-29T02:06:34.557Z,0.00
2023-03-29T02:07:34.498Z,0.00
2023-03-29T02:08:34.505Z,0.00
2023-03-29T02:09:34.491Z,0.00
2023-03-29T02:10:35.463Z,0.00
2023-03-29T02:11:34.470Z,0.00
2023-03-29T02:12:34.455Z,0.00
2023-03-29T02:13:34.416Z,0.00
2023-03-29T02:14:34.476Z,0.00
2023-03-29T02:15:34.458Z,0.00
2023-03-29T02:16:34.405Z,0.00
2023-03-29T02:17:34.417Z,0.00
2023-03-29T02:18:34.396Z,0.00
2023-03-29T02:19:34.392Z,0.00
2023-03-29T02:20:34.393Z,0.00
2023-03-29T02:21:34.368Z,0.00
2023-03-29T02:22:34.369Z,0.00
2023-03-29T02:23:34.398Z,0.00
2023-03-29T02:24:34.394Z,0.00
2023-03-29T02:25:34.347Z,0.00
2023-03-29T02:26:34.320Z,0.00
2023-03-29T02:27:34.362Z,0.00
2023-03-29T02:28:34.273Z,0.00
2023-03-29T02:29:34.274Z,0.00
2023-03-29T02:30:34.280Z,0.00
2023-03-29T02:31:34.272Z,0.00
2023-03-29T02:32:34.266Z,0.00
2023-03-29T02:33:34.251Z,0.00
2023-03-29T02:34:34.201Z,0.00
2023-03-29T02:35:34.374Z,0.00
2023-03-29T02:36:34.212Z,0.00
2023-03-29T02:37:34.202Z,0.00
2023-03-29T02:38:34.212Z,0.00
2023-03-29T02:39:34.301Z,0.00
2023-03-29T02:40:34.214Z,0.00
2023-03-29T02:41:34.166Z,0.00
2023-03-29T02:42:34.146Z,0.00
2023-03-29T02:43:34.208Z,0.00
2023-03-29T02:44:34.153Z,0.00
2023-03-29T02:45:34.198Z,0.00
2023-03-29T02:46:34.155Z,0.00
2023-03-29T02:47:34.190Z,0.00
2023-03-29T02:48:34.096Z,0.00
2023-03-29T02:49:34.084Z,0.00
2023-03-29T02:50:34.078Z,0.00
2023-03-29T02:51:35.096Z,0.00
2023-03-29T02:52:34.092Z,0.00
2023-03-29T02:53:34.073Z,0.00
2023-03-29T02:54:34.024Z,0.00
2023-03-29T02:55:34.011Z,0.00
2023-03-29T02:56:34.035Z,0.00
2023-03-29T02:57:34.009Z,0.00
2023-03-29T02:58:33.993Z,0.00
2023-03-29T02:59:33.994Z,0.00
2023-03-29T03:00:33.974Z,0.00
2023-03-29T03:01:34.017Z,0.00
2023-03-29T03:02:34.101Z,0.00
2023-03-29T03:03:34.128Z,0.00
2023-03-29T03:04:33.968Z,0.00
2023-03-29T03:05:33.931Z,0.00
2023-03-29T03:06:33.916Z,0.00
2023-03-29T03:07:33.924Z,0.00
2023-03-29T03:08:33.918Z,0.00
2023-03-29T03:09:33.883Z,0.00
2023-03-29T03:10:33.932Z,0.00
2023-03-29T03:11:33.864Z,0.00
2023-03-29T03:12:33.884Z,0.00
2023-03-29T03:13:33.883Z,0.00
2023-03-29T03:14:33.849Z,0.00
2023-03-29T03:15:33.848Z,0.00
2023-03-29T03:16:33.889Z,0.00
2023-03-29T03:17:33.889Z,0.00
2023-03-29T03:18:33.786Z,0.00
2023-03-29T03:19:33.788Z,0.00
2023-03-29T03:20:33.782Z,0.00
2023-03-29T03:21:33.819Z,0.00
2023-03-29T03:22:33.743Z,0.00
2023-03-29T03:23:33.766Z,0.00
2023-03-29T03:24:33.776Z,0.00
2023-03-29T03:25:33.707Z,0.00
2023-03-29T03:26:33.704Z,0.00
2023-03-29T03:27:33.647Z,0.00
2023-03-29T03:28:33.689Z,0.00
2023-03-29T03:29:33.703Z,0.00
2023-03-29T03:30:33.649Z,0.00
2023-03-29T03:31:34.453Z,0.00
2023-03-29T03:32:33.669Z,0.00
2023-03-29T03:33:33.654Z,0.00
2023-03-29T03:34:33.626Z,0.00
2023-03-29T03:35:33.607Z,0.00
2023-03-29T03:36:33.605Z,0.00
2023-03-29T03:37:33.613Z,0.00
2023-03-29T03:38:33.604Z,0.00
2023-03-29T03:39:33.609Z,0.00
2023-03-29T03:40:33.573Z,0.00
2023-03-29T03:41:33.565Z,0.00
2023-03-29T03:42:33.507Z,0.00
2023-03-29T03:43:33.542Z,0.00
2023-03-29T03:44:33.517Z,0.00
2023-03-29T03:45:33.570Z,0.00
2023-03-29T03:46:33.513Z,0.00
2023-03-29T03:47:33.495Z,0.00
2023-03-29T03:48:34.356Z,0.00
2023-03-29T03:49:33.466Z,0.00
2023-03-29T03:50:33.460Z,0.00
2023-03-29T03:51:33.491Z,0.00
2023-03-29T03:52:33.447Z,0.00
2023-03-29T03:53:33.414Z,0.00
2023-03-29T03:54:33.415Z,0.00
2023-03-29T03:55:33.365Z,0.00
2023-03-29T03:56:33.391Z,0.00
2023-03-29T03:57:33.359Z,0.00
2023-03-29T03:58:33.367Z,0.00
2023-03-29T03:59:33.342Z,0.00
2023-03-29T04:00:33.343Z,0.00
2023-03-29T04:01:33.358Z,0.00
2023-03-29T04:02:33.555Z,0.00
2023-03-29T04:03:33.370Z,0.00
2023-03-29T04:04:33.377Z,0.00
2023-03-29T04:05:33.303Z,0.00
2023-03-29T04:06:33.270Z,0.00
2023-03-29T04:07:33.282Z,0.00
2023-03-29T04:08:33.322Z,0.00
2023-03-29T04:09:33.234Z,0.00
2023-03-29T04:10:33.211Z,0.00
2023-03-29T04:11:33.226Z,0.00
2023-03-29T04:12:33.194Z,0.00
2023-03-29T04:13:33.278Z,0.00
2023-03-29T04:14:33.335Z,0.00
2023-03-29T04:15:33.235Z,0.00
2023-03-29T04:16:33.197Z,0.00
2023-03-29T04:17:33.152Z,0.00
2023-03-29T04:18:33.263Z,0.00
2023-03-29T04:19:33.156Z,0.00
2023-03-29T04:20:33.155Z,0.00
2023-03-29T04:21:33.118Z,0.00
2023-03-29T04:22:33.095Z,0.00
2023-03-29T04:23:33.138Z,0.00
2023-03-29T04:24:33.148Z,0.00
2023-03-29T04:25:33.103Z,0.00
2023-03-29T04:26:33.061Z,0.00
2023-03-29T04:27:33.074Z,0.00
2023-03-29T04:28:33.053Z,0.00
2023-03-29T04:29:33.428Z,0.00
2023-03-29T04:30:33.015Z,0.00
2023-03-29T04:31:34.119Z,0.00
2023-03-29T04:32:33.034Z,0.00
2023-03-29T04:33:33.012Z,0.00
2023-03-29T04:34:33.004Z,0.00
2023-03-29T04:35:33.057Z,0.00
2023-03-29T04:36:32.978Z,0.00
2023-03-29T04:37:33.428Z,0.00
2023-03-29T04:38:32.952Z,4.00
2023-03-29T04:39:33.912Z,4.00
2023-03-29T04:40:32.997Z,0.00
2023-03-29T04:41:32.942Z,4.00
2023-03-29T04:42:32.973Z,4.00
2023-03-29T04:43:32.881Z,4.00
2023-03-29T04:44:32.868Z,8.00
2023-03-29T04:45:32.865Z,4.00
2023-03-29T04:46:32.861Z,4.00
2023-03-29T04:47:32.943Z,4.00
2023-03-29T04:48:32.907Z,8.00
2023-03-29T04:49:32.840Z,8.00
2023-03-29T04:50:32.847Z,8.00
2023-03-29T04:51:32.828Z,12.00
2023-03-29T04:52:32.825Z,12.00
2023-03-29T04:53:32.782Z,16.00
2023-03-29T04:54:32.768Z,16.00
2023-03-29T04:55:32.781Z,24.00
2023-03-29T04:56:32.802Z,24.00
2023-03-29T04:57:32.826Z,28.00
2023-03-29T04:58:32.954Z,28.00
2023-03-29T04:59:32.740Z,32.00
2023-03-29T05:00:32.827Z,40.00
2023-03-29T05:01:33.038Z,48.00
2023-03-29T05:02:32.764Z,52.00
2023-03-29T05:03:32.731Z,60.00
2023-03-29T05:04:32.675Z,72.00
2023-03-29T05:05:32.662Z,80.00
2023-03-29T05:06:32.708Z,92.00
2023-03-29T05:07:32.645Z,104.00
2023-03-29T05:08:32.643Z,116.00
2023-03-29T05:09:35.018Z,136.00
2023-03-29T05:10:33.600Z,152.00
2023-03-29T05:11:33.583Z,168.00
2023-03-29T05:12:32.647Z,184.00
2023-03-29T05:13:32.593Z,204.00
2023-03-29T05:14:32.667Z,224.00
2023-03-29T05:15:32.549Z,252.00
2023-03-29T05:16:32.588Z,272.00
2023-03-29T05:17:32.593Z,300.00
2023-03-29T05:18:32.584Z,336.00
2023-03-29T05:19:32.577Z,376.00
2023-03-29T05:20:32.507Z,420.00
2023-03-29T05:21:32.614Z,472.00
2023-03-29T05:22:32.956Z,512.00
2023-03-29T05:23:32.496Z,552.00
2023-03-29T05:24:32.488Z,596.00
2023-03-29T05:25:33.382Z,652.00
2023-03-29T05:26:32.479Z,700.00
2023-03-29T05:27:32.503Z,756.00
2023-03-29T05:28:32.427Z,812.00
2023-03-29T05:29:32.443Z,876.00
2023-03-29T05:30:32.428Z,940.00
2023-03-29T05:31:32.458Z,1012.00
2023-03-29T05:32:32.474Z,1096.00
2023-03-29T05:33:32.374Z,1136.00
2023-03-29T05:34:32.412Z,1188.00
2023-03-29T05:35:32.401Z,1252.00
2023-03-29T05:36:32.389Z,1312.00
2023-03-29T05:37:32.377Z,1404.00
2023-03-29T05:38:32.352Z,1484.00
2023-03-29T05:39:33.702Z,1552.00
2023-03-29T05:40:32.318Z,1600.00
2023-03-29T05:41:33.296Z,1628.00
2023-03-29T05:42:32.279Z,1624.00
2023-03-29T05:43:32.299Z,1620.00
2023-03-29T05:44:32.293Z,1648.00
2023-03-29T05:45:32.296Z,1676.00
2023-03-29T05:46:32.236Z,1676.00
2023-03-29T05:47:32.296Z,1720.00
2023-03-29T05:48:32.253Z,1780.00
2023-03-29T05:49:32.181Z,1920.00
2023-03-29T05:50:32.252Z,2032.00
2023-03-29T05:51:32.157Z,2076.00
2023-03-29T05:52:32.138Z,2092.00
2023-03-29T05:53:32.226Z,2064.00
2023-03-29T05:54:32.140Z,1932.00
2023-03-29T05:55:32.115Z,1776.00
2023-03-29T05:56:32.114Z,1620.00
2023-03-29T05:57:32.080Z,1476.00
2023-03-29T05:58:32.142Z,1436.00
2023-03-29T05:59:32.163Z,1456.00
2023-03-29T06:00:32.053Z,1472.00
2023-03-29T06:01:32.072Z,1548.00
2023-03-29T06:02:32.147Z,1568.00
2023-03-29T06:03:32.205Z,1536.00
2023-03-29T06:04:32.103Z,1596.00
2023-03-29T06:05:32.020Z,1620.00
2023-03-29T06:06:31.993Z,1644.00
2023-03-29T06:07:31.996Z,1720.00
2023-03-29T06:08:31.978Z,1760.00
2023-03-29T06:09:32.002Z,1788.00
2023-03-29T06:10:31.970Z,1764.00
2023-03-29T06:11:32.198Z,1900.00
2023-03-29T06:12:31.961Z,2004.00
2023-03-29T06:13:32.048Z,2124.00
2023-03-29T06:14:31.996Z,2072.00
2023-03-29T06:15:31.940Z,1952.00
2023-03-29T06:16:32.016Z,1896.00
2023-03-29T06:17:31.947Z,1868.00
2023-03-29T06:18:31.919Z,1816.00
2023-03-29T06:19:31.905Z,1916.00
2023-03-29T06:20:31.958Z,1948.00
2023-03-29T06:21:32.041Z,2160.00
2023-03-29T06:22:32.026Z,2844.00
2023-03-29T06:23:31.878Z,3396.00
2023-03-29T06:24:32.346Z,3564.00
2023-03-29T06:25:31.832Z,3396.00
2023-03-29T06:26:31.812Z,3332.00
2023-03-29T06:27:31.834Z,3648.00
2023-03-29T06:28:31.915Z,4052.00
2023-03-29T06:29:31.789Z,3988.00
2023-03-29T06:30:31.752Z,3468.00
2023-03-29T06:31:31.786Z,3164.00
2023-03-29T06:32:31.786Z,3256.00
2023-03-29T06:33:31.692Z,3356.00
2023-03-29T06:34:31.676Z,3360.00
2023-03-29T06:35:31.774Z,3360.00
2023-03-29T06:36:32.130Z,3564.00
2023-03-29T06:37:31.668Z,3856.00
2023-03-29T06:38:31.675Z,3964.00
2023-03-29T06:39:31.618Z,3892.00
2023-03-29T06:40:31.650Z,3856.00
2023-03-29T06:41:31.643Z,3832.00
2023-03-29T06:42:31.584Z,3608.00
2023-03-29T06:43:31.650Z,3296.00
2023-03-29T06:44:31.598Z,3056.00
2023-03-29T06:45:31.630Z,3064.00
2023-03-29T06:46:31.637Z,3116.00
2023-03-29T06:47:31.674Z,3108.00
2023-03-29T06:48:31.516Z,3144.00
2023-03-29T06:49:31.623Z,3176.00
2023-03-29T06:50:32.484Z,3140.00
2023-03-29T06:51:31.530Z,3148.00
2023-03-29T06:52:31.526Z,3272.00
2023-03-29T06:53:31.527Z,3412.00
2023-03-29T06:54:31.457Z,3440.00
2023-03-29T06:55:31.495Z,3504.00
2023-03-29T06:56:31.490Z,3520.00
2023-03-29T06:57:32.311Z,3280.00
2023-03-29T06:58:31.432Z,3040.00
2023-03-29T06:59:31.402Z,3024.00
2023-03-29T07:00:31.450Z,3260.00
2023-03-29T07:01:32.343Z,3336.00
2023-03-29T07:02:31.441Z,3128.00
2023-03-29T07:03:31.369Z,2948.00
2023-03-29T07:04:31.393Z,2892.00
2023-03-29T07:05:31.375Z,2952.00
2023-03-29T07:06:31.336Z,3348.00
2023-03-29T07:07:31.339Z,3888.00
2023-03-29T07:08:31.544Z,4256.00
2023-03-29T07:09:31.342Z,4412.00
2023-03-29T07:10:31.285Z,4656.00
2023-03-29T07:11:31.280Z,5176.00
2023-03-29T07:12:31.266Z,5284.00
2023-03-29T07:13:31.277Z,5212.00
2023-03-29T07:14:31.229Z,5308.00
2023-03-29T07:15:31.245Z,5468.00
2023-03-29T07:16:31.254Z,5480.00
2023-03-29T07:17:31.322Z,5856.00
2023-03-29T07:18:31.214Z,6484.00
2023-03-29T07:19:31.172Z,6576.00
2023-03-29T07:20:31.164Z,6676.00
2023-03-29T07:21:31.834Z,7596.00
2023-03-29T07:22:31.389Z,7924.00
2023-03-29T07:23:31.206Z,6640.00
2023-03-29T07:24:32.141Z,5312.00
2023-03-29T07:25:31.129Z,4612.00
2023-03-29T07:26:31.093Z,4492.00
2023-03-29T07:27:31.077Z,4492.00
2023-03-29T07:28:31.881Z,4596.00
2023-03-29T07:29:31.083Z,4840.00
2023-03-29T07:30:32.166Z,5052.00
2023-03-29T07:31:32.073Z,5148.00
2023-03-29T07:32:31.183Z,5160.00
2023-03-29T07:33:31.178Z,5036.00
2023-03-29T07:34:31.057Z,5320.00
2023-03-29T07:35:31.123Z,5776.00
2023-03-29T07:36:31.078Z,6152.00
2023-03-29T07:37:31.013Z,6476.00
2023-03-29T07:38:31.034Z,7292.00
2023-03-29T07:39:31.054Z,7940.00
2023-03-29T07:40:31.712Z,8244.00
2023-03-29T07:41:30.979Z,8316.00
2023-03-29T07:42:30.985Z,7984.00
2023-03-29T07:43:31.895Z,7516.00
2023-03-29T07:44:30.976Z,7156.00
2023-03-29T07:45:30.970Z,7096.00
2023-03-29T07:46:30.892Z,7404.00
2023-03-29T07:47:30.940Z,8328.00
2023-03-29T07:48:30.909Z,8936.00
2023-03-29T07:49:30.905Z,8476.00
2023-03-29T07:50:30.896Z,8112.00
2023-03-29T07:51:30.897Z,8092.00
2023-03-29T07:52:30.866Z,8712.00
2023-03-29T07:53:30.850Z,9500.00
2023-03-29T07:54:30.817Z,9960.00
2023-03-29T07:55:30.827Z,9768.00
2023-03-29T07:56:30.783Z,9884.00
2023-03-29T07:57:30.913Z,11000.00
2023-03-29T07:58:30.724Z,12200.00
2023-03-29T07:59:30.734Z,12488.00
2023-03-29T08:00:30.740Z,12008.00
2023-03-29T08:01:30.838Z,11240.00
2023-03-29T08:02:30.762Z,10976.00
2023-03-29T08:03:30.719Z,10948.00
2023-03-29T08:04:31.821Z,10716.00
2023-03-29T08:05:40.796Z,10492.00
2023-03-29T08:06:32.701Z,10552.00
2023-03-29T08:07:30.691Z,10820.00
2023-03-29T08:08:30.732Z,11416.00
2023-03-29T08:09:30.636Z,12052.00
2023-03-29T08:10:30.639Z,11904.00
2023-03-29T08:11:30.609Z,11332.00
2023-03-29T08:12:30.564Z,10528.00
2023-03-29T08:13:30.560Z,10132.00
2023-03-29T08:14:30.606Z,9644.00
2023-03-29T08:15:30.612Z,9356.00
2023-03-29T08:16:31.330Z,9144.00
2023-03-29T08:17:30.662Z,9572.00
2023-03-29T08:18:32.863Z,8844.00
2023-03-29T08:19:30.518Z,7120.00
2023-03-29T08:21:03.566Z,6516.00
2023-03-29T08:21:31.252Z,6168.00
2023-03-29T08:22:30.537Z,6064.00
2023-03-29T08:23:30.513Z,6528.00
2023-03-29T08:24:30.499Z,6896.00
2023-03-29T08:25:30.489Z,6700.00
2023-03-29T08:26:30.477Z,5396.00
2023-03-29T08:27:30.478Z,4836.00
2023-03-29T08:28:30.439Z,4740.00
2023-03-29T08:29:30.423Z,4620.00
2023-03-29T08:30:30.415Z,4564.00
2023-03-29T08:31:30.426Z,4480.00
2023-03-29T08:32:30.422Z,4464.00
2023-03-29T08:33:30.401Z,4508.00
2023-03-29T08:34:30.414Z,4484.00
2023-03-29T08:35:30.358Z,4460.00
2023-03-29T08:36:30.402Z,4240.00
2023-03-29T08:37:30.359Z,4444.00
2023-03-29T08:38:30.373Z,4820.00
2023-03-29T08:39:30.345Z,5168.00
2023-03-29T08:40:30.310Z,6036.00
2023-03-29T08:41:30.297Z,6744.00
2023-03-29T08:42:30.304Z,6860.00
2023-03-29T08:43:30.305Z,8348.00
2023-03-29T08:44:30.295Z,9388.00
2023-03-29T08:45:30.779Z,8200.00
2023-03-29T08:46:35.151Z,7576.00
2023-03-29T08:47:32.248Z,7400.00
2023-03-29T08:48:30.242Z,7168.00
2023-03-29T08:49:30.227Z,7124.00
2023-03-29T08:50:30.222Z,7712.00
2023-03-29T08:51:30.204Z,9012.00
2023-03-29T08:52:30.175Z,10456.00
2023-03-29T08:53:30.221Z,12092.00
2023-03-29T08:54:30.147Z,13756.00
2023-03-29T08:55:30.126Z,14920.00
2023-03-29T08:56:32.763Z,15348.00
2023-03-29T08:57:30.208Z,15212.00
2023-03-29T08:58:30.142Z,15576.00
2023-03-29T08:59:30.118Z,17216.00
2023-03-29T09:00:30.094Z,19616.00
2023-03-29T09:01:30.139Z,24864.00
2023-03-29T09:02:30.117Z,22560.00
2023-03-29T09:03:30.197Z,21472.00
2023-03-29T09:04:30.056Z,19840.00
2023-03-29T09:05:30.058Z,19232.00
2023-03-29T09:06:30.804Z,19808.00
2023-03-29T09:07:30.012Z,21536.00
2023-03-29T09:08:30.000Z,22048.00
2023-03-29T09:09:29.991Z,23296.00
2023-03-29T09:10:30.705Z,22016.00
2023-03-29T09:11:29.974Z,24096.00
2023-03-29T09:12:29.974Z,25888.00
2023-03-29T09:13:30.017Z,30976.00
2023-03-29T09:14:29.937Z,36384.00
2023-03-29T09:15:29.927Z,34368.00
2023-03-29T09:16:31.919Z,30432.00
2023-03-29T09:17:29.927Z,29920.00
2023-03-29T09:18:29.879Z,33344.00
2023-03-29T09:20:57.722Z,31552.00
2023-03-29T09:20:59.275Z,20960.00
2023-03-29T09:21:59.290Z,17376.00
2023-03-29T09:22:59.251Z,16704.00
2023-03-29T09:23:59.175Z,16224.00
2023-03-29T09:24:59.186Z,13960.00
2023-03-29T09:25:59.187Z,12196.00
2023-03-29T09:26:59.282Z,10280.00
2023-03-29T09:27:59.140Z,8184.00
2023-03-29T09:28:59.166Z,8488.00
2023-03-29T09:29:59.103Z,10876.00
2023-03-29T09:30:59.131Z,10120.00
2023-03-29T09:31:59.136Z,10876.00
2023-03-29T09:32:59.230Z,11160.00
2023-03-29T09:33:59.087Z,11396.00
2023-03-29T09:34:59.073Z,12252.00
2023-03-29T09:35:59.083Z,11460.00
2023-03-29T09:36:59.045Z,10784.00
2023-03-29T09:37:59.040Z,9924.00
2023-03-29T09:38:59.017Z,8756.00
2023-03-29T09:39:59.016Z,8600.00
2023-03-29T09:40:58.972Z,9304.00
2023-03-29T09:41:58.971Z,10536.00
2023-03-29T09:42:58.977Z,11632.00
2023-03-29T09:43:59.078Z,12756.00
2023-03-29T09:44:58.989Z,13764.00
2023-03-29T09:45:58.973Z,14464.00
2023-03-29T09:46:58.917Z,14580.00
2023-03-29T09:47:58.985Z,13176.00
2023-03-29T09:48:58.961Z,13200.00
2023-03-29T09:49:59.092Z,14712.00
2023-03-29T09:50:58.944Z,17248.00
2023-03-29T09:51:58.897Z,17824.00
2023-03-29T09:52:58.959Z,16192.00
2023-03-29T09:53:58.882Z,15168.00
2023-03-29T09:54:59.106Z,17248.00
2023-03-29T09:55:58.799Z,14716.00
2023-03-29T09:56:58.896Z,14052.00
2023-03-29T09:57:58.780Z,13424.00
2023-03-29T09:58:58.824Z,13200.00
2023-03-29T09:59:58.795Z,13560.00
2023-03-29T10:00:58.843Z,14484.00
2023-03-29T10:01:58.812Z,13980.00
2023-03-29T10:02:58.949Z,13140.00
2023-03-29T10:03:58.993Z,12508.00
2023-03-29T10:04:59.391Z,12136.00
2023-03-29T10:05:58.878Z,11780.00
2023-03-29T10:06:58.727Z,11772.00
2023-03-29T10:07:58.982Z,12280.00
2023-03-29T10:08:58.913Z,12984.00
2023-03-29T10:09:58.835Z,14772.00
2023-03-29T10:10:58.717Z,14376.00
2023-03-29T10:11:58.695Z,14884.00
2023-03-29T10:12:58.635Z,17280.00
2023-03-29T10:13:58.893Z,16320.00
2023-03-29T10:14:58.755Z,15468.00
2023-03-29T10:15:58.775Z,14872.00
2023-03-29T10:16:58.705Z,13552.00
2023-03-29T10:17:58.836Z,12376.00
2023-03-29T10:18:58.680Z,11664.00
2023-03-29T10:19:58.748Z,11128.00
2023-03-29T10:20:58.649Z,10576.00
2023-03-29T10:21:58.539Z,10104.00
2023-03-29T10:22:58.696Z,10580.00
2023-03-29T10:23:58.670Z,11460.00
2023-03-29T10:24:59.067Z,11760.00
2023-03-29T10:25:58.499Z,13032.00
2023-03-29T10:26:58.541Z,13320.00
2023-03-29T10:27:58.440Z,14752.00
2023-03-29T10:28:58.478Z,14584.00
2023-03-29T10:29:58.596Z,14872.00
2023-03-29T10:30:58.768Z,15240.00
2023-03-29T10:31:58.523Z,14928.00
2023-03-29T10:32:58.559Z,14344.00
2023-03-29T10:33:58.511Z,13788.00
2023-03-29T10:34:58.648Z,13464.00
2023-03-29T10:35:58.514Z,13296.00
2023-03-29T10:36:58.610Z,13304.00
2023-03-29T10:37:58.380Z,13576.00
2023-03-29T10:38:59.078Z,14196.00
2023-03-29T10:39:58.755Z,14376.00
2023-03-29T10:41:00.662Z,14236.00
2023-03-29T10:41:58.336Z,14128.00
2023-03-29T10:42:58.360Z,13648.00
2023-03-29T10:43:58.319Z,13124.00
2023-03-29T10:44:58.334Z,12584.00
2023-03-29T10:45:58.348Z,12284.00
2023-03-29T10:46:58.346Z,12436.00
2023-03-29T10:47:58.343Z,12932.00
2023-03-29T10:48:58.254Z,12844.00
2023-03-29T10:49:58.245Z,12856.00
2023-03-29T10:50:58.407Z,13500.00
2023-03-29T10:51:58.283Z,14492.00
2023-03-29T10:52:58.240Z,15220.00
2023-03-29T10:53:58.309Z,15804.00
2023-03-29T10:54:58.234Z,16672.00
2023-03-29T10:55:58.262Z,15864.00
2023-03-29T10:56:58.321Z,14064.00
2023-03-29T10:57:58.489Z,12384.00
2023-03-29T10:58:58.801Z,11264.00
2023-03-29T10:59:58.489Z,11032.00
2023-03-29T11:00:58.473Z,11208.00
2023-03-29T11:01:58.290Z,11248.00
2023-03-29T11:02:58.195Z,11664.00
2023-03-29T11:03:58.447Z,12640.00
2023-03-29T11:04:58.388Z,14644.00
2023-03-29T11:05:58.135Z,17984.00
2023-03-29T11:06:58.303Z,18496.00
2023-03-29T11:07:58.248Z,17376.00
2023-03-29T11:08:58.487Z,16352.00
2023-03-29T11:09:58.328Z,16352.00
2023-03-29T11:10:58.432Z,16768.00
2023-03-29T11:12:12.200Z,18272.00
2023-03-29T11:13:00.576Z,20672.00
2023-03-29T11:13:59.881Z,22272.00
2023-03-29T11:14:58.159Z,23168.00
2023-03-29T11:15:58.210Z,28800.00
2023-03-29T11:16:58.063Z,26592.00
2023-03-29T11:17:58.103Z,20736.00
2023-03-29T11:18:59.398Z,18016.00
2023-03-29T11:19:58.808Z,16160.00
2023-03-29T11:20:58.189Z,15020.00
2023-03-29T11:21:58.193Z,15252.00
2023-03-29T11:22:58.311Z,15648.00
2023-03-29T11:23:57.961Z,16224.00
2023-03-29T11:24:58.103Z,17024.00
2023-03-29T11:25:57.979Z,17824.00
2023-03-29T11:26:59.021Z,17568.00
2023-03-29T11:27:58.760Z,17120.00
2023-03-29T11:28:58.626Z,17056.00
2023-03-29T11:29:58.476Z,16608.00
2023-03-29T12:55:12.970Z,25440.00
2023-03-29T13:02:30.605Z,37216.00
2023-03-29T13:07:34.166Z,28384.00
2023-03-29T13:12:03.410Z,29280.00
2023-03-29T13:19:26.305Z,26400.00
2023-03-29T13:25:23.887Z,20608.00
2023-03-29T13:29:05.718Z,17248.00
2023-03-29T13:36:40.871Z,19328.00
2023-03-29T13:55:56.863Z,21664.00
2023-03-29T14:02:26.659Z,22144.00
2023-03-29T14:09:17.869Z,16928.00
2023-03-29T14:14:32.475Z,16064.00
2023-03-29T14:15:31.820Z,16224.00
2023-03-29T14:16:32.664Z,16480.00
2023-03-29T14:17:32.525Z,16448.00
2023-03-29T14:18:32.032Z,16320.00
2023-03-29T14:19:32.052Z,15164.00
2023-03-29T14:20:32.200Z,15448.00
2023-03-29T14:21:31.989Z,15052.00
2023-03-29T14:22:31.811Z,14992.00
2023-03-29T14:23:31.814Z,14928.00
2023-03-29T14:24:32.004Z,14828.00
2023-03-29T14:25:31.814Z,14832.00
2023-03-29T14:26:31.758Z,14780.00
2023-03-29T14:27:31.815Z,14664.00
2023-03-29T14:28:31.689Z,14700.00
2023-03-29T14:29:31.796Z,14676.00
2023-03-29T14:30:32.559Z,14580.00
2023-03-29T14:35:22.761Z,14620.00
2023-03-29T14:35:34.265Z,14632.00
2023-03-29T14:36:29.570Z,14620.00
2023-03-29T14:44:33.917Z,13788.00
2023-03-29T14:45:57.461Z,13792.00
2023-03-29T14:45:59.922Z,13716.00
2023-03-29T14:48:24.617Z,13628.00
2023-03-29T14:49:22.281Z,13512.00
2023-03-29T14:49:30.998Z,13432.00
2023-03-29T14:51:51.622Z,13348.00
2023-03-29T14:51:54.469Z,13088.00
2023-03-29T14:54:46.095Z,13048.00
2023-03-29T14:54:48.212Z,13044.00
2023-03-29T14:55:47.893Z,12996.00
2023-03-29T14:57:07.523Z,12912.00
2023-03-29T14:58:11.119Z,12760.00
2023-03-29T15:01:45.647Z,12316.00
2023-03-29T15:01:48.247Z,11928.00
2023-03-29T15:03:29.591Z,11752.00
2023-03-29T15:03:47.578Z,11604.00
2023-03-29T15:06:19.785Z,11388.00
2023-03-29T15:08:57.592Z,10860.00
2023-03-29T15:10:16.927Z,10652.00
2023-03-29T15:10:21.015Z,10604.00
2023-03-29T15:11:18.881Z,10500.00
2023-03-29T15:13:40.141Z,10348.00
2023-03-29T15:13:57.016Z,10032.00
2023-03-29T15:16:08.110Z,9792.00
2023-03-29T15:16:10.460Z,9392.00
2023-03-29T15:17:10.288Z,9092.00